sensor_id;sensor_type;location;lat;lon;timestamp;pressure;altitude;pressure_sealevel;temperature;humidity
39739;BME280;25422;48.286;8.484;2023-04-03T00:01:07;94591.19;;;-0.44;100.00
39739;BME280;25422;48.286;8.484;2023-04-03T00:03:33;94592.38;;;-0.36;100.00
39739;BME280;25422;48.286;8.484;2023-04-03T00:05:59;94592.66;;;-0.40;100.00
39739;BME280;25422;48.286;8.484;2023-04-03T00:08:25;94588.53;;;-0.43;100.00
39739;BME280;25422;48.286;8.484;2023-04-03T00:10:50;94589.81;;;-0.50;100.00
39739;BME280;25422;48.286;8.484;2023-04-03T00:13:16;94592.09;;;-0.45;100.00
39739;BME280;25422;48.286;8.484;2023-04-03T00:15:41;94593.00;;;-0.46;100.00
39739;BME280;25422;48.286;8.484;2023-04-03T00:18:07;94603.19;;;-0.45;100.00
39739;BME280;25422;48.286;8.484;2023-04-03T00:20:33;94597.91;;;-0.42;100.00
39739;BME280;25422;48.286;8.484;2023-04-03T00:22:59;94599.91;;;-0.47;100.00
39739;BME280;25422;48.286;8.484;2023-04-03T00:25:24;94591.56;;;-0.51;100.00
39739;BME280;25422;48.286;8.484;2023-04-03T00:27:50;94608.91;;;-0.54;100.00
39739;BME280;25422;48.286;8.484;2023-04-03T00:30:18;94599.81;;;-0.45;100.00
39739;BME280;25422;48.286;8.484;2023-04-03T00:32:43;94597.34;;;-0.47;100.00
39739;BME280;25422;48.286;8.484;2023-04-03T00:35:09;94597.63;;;-0.52;100.00
39739;BME280;25422;48.286;8.484;2023-04-03T00:37:35;94602.84;;;-0.53;100.00
39739;BME280;25422;48.286;8.484;2023-04-03T00:40:00;94607.16;;;-0.54;100.00
39739;BME280;25422;48.286;8.484;2023-04-03T00:42:26;94603.50;;;-0.49;100.00
39739;BME280;25422;48.286;8.484;2023-04-03T00:47:18;94595.13;;;-0.53;100.00
39739;BME280;25422;48.286;8.484;2023-04-03T00:49:44;94596.06;;;-0.54;100.00
39739;BME280;25422;48.286;8.484;2023-04-03T00:52:14;94599.56;;;-0.55;100.00
39739;BME280;25422;48.286;8.484;2023-04-03T00:54:42;94593.66;;;-0.57;100.00
39739;BME280;25422;48.286;8.484;2023-04-03T00:57:09;94592.66;;;-0.69;100.00
39739;BME280;25422;48.286;8.484;2023-04-03T00:59:39;94585.22;;;-0.59;100.00
39739;BME280;25422;48.286;8.484;2023-04-03T01:02:07;94581.91;;;-0.61;100.00
39739;BME280;25422;48.286;8.484;2023-04-03T01:04:37;94578.06;;;-0.69;100.00
39739;BME280;25422;48.286;8.484;2023-04-03T01:07:08;94567.03;;;-0.71;100.00
39739;BME280;25422;48.286;8.484;2023-04-03T01:09:34;94565.50;;;-0.73;100.00
39739;BME280;25422;48.286;8.484;2023-04-03T01:12:36;94568.88;;;-0.73;100.00
39739;BME280;25422;48.286;8.484;2023-04-03T01:15:09;94566.41;;;-0.74;100.00
39739;BME280;25422;48.286;8.484;2023-04-03T01:17:53;94559.34;;;-0.71;100.00
39739;BME280;25422;48.286;8.484;2023-04-03T01:23:24;94562.09;;;-0.74;100.00
39739;BME280;25422;48.286;8.484;2023-04-03T01:25:54;94561.63;;;-0.80;100.00
39739;BME280;25422;48.286;8.484;2023-04-03T01:28:30;94557.69;;;-0.72;100.00
39739;BME280;25422;48.286;8.484;2023-04-03T01:31:20;94571.66;;;-0.76;100.00
39739;BME280;25422;48.286;8.484;2023-04-03T01:33:47;94570.72;;;-0.75;100.00
39739;BME280;25422;48.286;8.484;2023-04-03T01:36:19;94560.44;;;-0.75;100.00
39739;BME280;25422;48.286;8.484;2023-04-03T01:38:46;94562.84;;;-0.72;100.00
39739;BME280;25422;48.286;8.484;2023-04-03T01:41:11;94563.94;;;-0.76;100.00
39739;BME280;25422;48.286;8.484;2023-04-03T01:43:37;94556.25;;;-0.76;100.00
39739;BME280;25422;48.286;8.484;2023-04-03T01:46:03;94553.47;;;-0.73;100.00
39739;BME280;25422;48.286;8.484;2023-04-03T01:48:28;94556.75;;;-0.71;100.00
39739;BME280;25422;48.286;8.484;2023-04-03T01:50:54;94554.38;;;-0.74;100.00
39739;BME280;25422;48.286;8.484;2023-04-03T01:53:20;94556.25;;;-0.76;100.00
39739;BME280;25422;48.286;8.484;2023-04-03T01:55:45;94555.78;;;-0.82;100.00
39739;BME280;25422;48.286;8.484;2023-04-03T01:58:11;94564.19;;;-0.80;100.00
39739;BME280;25422;48.286;8.484;2023-04-03T02:00:36;94558.44;;;-0.84;100.00
39739;BME280;25422;48.286;8.484;2023-04-03T02:03:02;94556.13;;;-0.89;100.00
39739;BME280;25422;48.286;8.484;2023-04-03T02:05:27;94562.72;;;-0.85;100.00
39739;BME280;25422;48.286;8.484;2023-04-03T02:07:53;94554.56;;;-0.91;100.00
39739;BME280;25422;48.286;8.484;2023-04-03T02:10:18;94556.97;;;-0.88;100.00
39739;BME280;25422;48.286;8.484;2023-04-03T02:12:44;94566.16;;;-0.84;100.00
39739;BME280;25422;48.286;8.484;2023-04-03T02:15:10;94558.97;;;-0.93;100.00
39739;BME280;25422;48.286;8.484;2023-04-03T02:17:35;94565.78;;;-0.92;100.00
39739;BME280;25422;48.286;8.484;2023-04-03T02:20:01;94559.88;;;-0.94;100.00
39739;BME280;25422;48.286;8.484;2023-04-03T02:22:28;94548.50;;;-0.90;100.00
39739;BME280;25422;48.286;8.484;2023-04-03T02:24:53;94560.34;;;-0.88;100.00
39739;BME280;25422;48.286;8.484;2023-04-03T02:27:19;94563.00;;;-0.89;100.00
39739;BME280;25422;48.286;8.484;2023-04-03T02:29:45;94560.16;;;-0.99;100.00
39739;BME280;25422;48.286;8.484;2023-04-03T02:32:10;94558.50;;;-1.00;100.00
39739;BME280;25422;48.286;8.484;2023-04-03T02:34:36;94549.59;;;-1.09;100.00
39739;BME280;25422;48.286;8.484;2023-04-03T02:37:01;94546.88;;;-1.06;100.00
39739;BME280;25422;48.286;8.484;2023-04-03T02:39:27;94552.63;;;-1.02;100.00
39739;BME280;25422;48.286;8.484;2023-04-03T02:41:54;94550.16;;;-1.04;100.00
39739;BME280;25422;48.286;8.484;2023-04-03T02:44:22;94550.16;;;-1.04;100.00
39739;BME280;25422;48.286;8.484;2023-04-03T02:46:49;94560.97;;;-0.98;100.00
39739;BME280;25422;48.286;8.484;2023-04-03T02:49:16;94552.94;;;-0.92;100.00
39739;BME280;25422;48.286;8.484;2023-04-03T02:51:41;94554.72;;;-1.09;100.00
39739;BME280;25422;48.286;8.484;2023-04-03T02:54:07;94560.31;;;-1.02;100.00
39739;BME280;25422;48.286;8.484;2023-04-03T02:56:35;94568.50;;;-1.10;100.00
39739;BME280;25422;48.286;8.484;2023-04-03T02:59:00;94555.19;;;-1.02;100.00
39739;BME280;25422;48.286;8.484;2023-04-03T03:01:26;94555.91;;;-1.14;100.00
39739;BME280;25422;48.286;8.484;2023-04-03T03:03:56;94557.66;;;-1.15;100.00
39739;BME280;25422;48.286;8.484;2023-04-03T03:06:22;94561.31;;;-1.19;100.00
39739;BME280;25422;48.286;8.484;2023-04-03T03:08:47;94561.41;;;-1.21;100.00
39739;BME280;25422;48.286;8.484;2023-04-03T03:11:13;94558.91;;;-1.22;100.00
39739;BME280;25422;48.286;8.484;2023-04-03T03:13:39;94559.84;;;-1.23;100.00
39739;BME280;25422;48.286;8.484;2023-04-03T03:16:04;94561.41;;;-1.21;100.00
39739;BME280;25422;48.286;8.484;2023-04-03T03:18:30;94558.91;;;-1.22;100.00
39739;BME280;25422;48.286;8.484;2023-04-03T03:20:58;94556.09;;;-1.17;100.00
39739;BME280;25422;48.286;8.484;2023-04-03T03:23:25;94561.91;;;-1.14;100.00
39739;BME280;25422;48.286;8.484;2023-04-03T03:25:59;94556.75;;;-1.14;100.00
39739;BME280;25422;48.286;8.484;2023-04-03T03:28:25;94561.69;;;-1.11;100.00
39739;BME280;25422;48.286;8.484;2023-04-03T03:30:51;94550.53;;;-1.10;100.00
39739;BME280;25422;48.286;8.484;2023-04-03T03:33:17;94557.94;;;-1.05;100.00
39739;BME280;25422;48.286;8.484;2023-04-03T03:35:43;94550.91;;;-1.02;100.00
39739;BME280;25422;48.286;8.484;2023-04-03T03:38:09;94549.59;;;-1.09;100.00
39739;BME280;25422;48.286;8.484;2023-04-03T03:40:35;94559.03;;;-1.09;100.00
39739;BME280;25422;48.286;8.484;2023-04-03T03:43:01;94559.13;;;-1.11;100.00
39739;BME280;25422;48.286;8.484;2023-04-03T03:45:26;94555.00;;;-1.13;100.00
39739;BME280;25422;48.286;8.484;2023-04-03T03:47:52;94546.94;;;-1.07;100.00
39739;BME280;25422;48.286;8.484;2023-04-03T03:50:17;94561.69;;;-1.11;100.00
39739;BME280;25422;48.286;8.484;2023-04-03T03:52:43;94557.28;;;-1.09;100.00
39739;BME280;25422;48.286;8.484;2023-04-03T03:55:10;94561.94;;;-1.15;100.00
39739;BME280;25422;48.286;8.484;2023-04-03T03:57:36;94553.63;;;-1.19;100.00
39739;BME280;25422;48.286;8.484;2023-04-03T04:00:02;94556.38;;;-1.08;100.00
39739;BME280;25422;48.286;8.484;2023-04-03T04:02:29;94557.38;;;-1.10;100.00
39739;BME280;25422;48.286;8.484;2023-04-03T04:04:55;94563.38;;;-1.10;100.00
39739;BME280;25422;48.286;8.484;2023-04-03T04:07:20;94561.63;;;-1.09;100.00
39739;BME280;25422;48.286;8.484;2023-04-03T04:09:46;94562.72;;;-1.13;100.00
39739;BME280;25422;48.286;8.484;2023-04-03T04:12:12;94562.53;;;-1.10;100.00
39739;BME280;25422;48.286;8.484;2023-04-03T04:14:38;94559.22;;;-1.12;100.00
39739;BME280;25422;48.286;8.484;2023-04-03T04:17:06;94569.84;;;-1.19;100.00
39739;BME280;25422;48.286;8.484;2023-04-03T04:19:32;94569.19;;;-1.22;100.00
39739;BME280;25422;48.286;8.484;2023-04-03T04:21:58;94567.94;;;-1.15;100.00
39739;BME280;25422;48.286;8.484;2023-04-03T04:24:24;94574.88;;;-1.17;100.00
39739;BME280;25422;48.286;8.484;2023-04-03T04:26:52;94567.03;;;-1.14;100.00
39739;BME280;25422;48.286;8.484;2023-04-03T04:29:21;94567.28;;;-1.19;100.00
39739;BME280;25422;48.286;8.484;2023-04-03T04:31:48;94567.94;;;-1.15;100.00
39739;BME280;25422;48.286;8.484;2023-04-03T04:34:14;94571.50;;;-1.17;100.00
39739;BME280;25422;48.286;8.484;2023-04-03T04:36:39;94561.13;;;-1.16;100.00
39739;BME280;25422;48.286;8.484;2023-04-03T04:39:05;94568.28;;;-1.21;100.00
39739;BME280;25422;48.286;8.484;2023-04-03T04:41:31;94563.16;;;-1.21;100.00
39739;BME280;25422;48.286;8.484;2023-04-03T04:43:58;94573.69;;;-1.26;100.00
39739;BME280;25422;48.286;8.484;2023-04-03T04:46:24;94562.41;;;-1.23;100.00
39739;BME280;25422;48.286;8.484;2023-04-03T04:48:54;94553.63;;;-1.19;100.00
39739;BME280;25422;48.286;8.484;2023-04-03T04:51:21;94555.53;;;-1.23;100.00
39739;BME280;25422;48.286;8.484;2023-04-03T04:53:46;94565.16;;;-1.26;100.00
39739;BME280;25422;48.286;8.484;2023-04-03T04:56:14;94559.28;;;-1.28;100.00
39739;BME280;25422;48.286;8.484;2023-04-03T04:58:41;94579.16;;;-1.32;100.00
39739;BME280;25422;48.286;8.484;2023-04-03T05:01:09;94567.81;;;-1.28;100.00
39739;BME280;25422;48.286;8.484;2023-04-03T05:03:40;94572.03;;;-1.27;100.00
39739;BME280;25422;48.286;8.484;2023-04-03T05:06:06;94568.81;;;-1.30;100.00
39739;BME280;25422;48.286;8.484;2023-04-03T05:08:33;94581.63;;;-1.30;100.00
39739;BME280;25422;48.286;8.484;2023-04-03T05:10:59;94583.13;;;-1.26;100.00
39739;BME280;25422;48.286;8.484;2023-04-03T05:13:26;94578.81;;;-1.26;100.00
39739;BME280;25422;48.286;8.484;2023-04-03T05:15:52;94582.28;;;-1.27;100.00
39739;BME280;25422;48.286;8.484;2023-04-03T05:18:18;94587.34;;;-1.25;100.00
39739;BME280;25422;48.286;8.484;2023-04-03T05:20:43;94592.56;;;-1.27;100.00
39739;BME280;25422;48.286;8.484;2023-04-03T05:23:10;94592.75;;;-1.30;100.00
39739;BME280;25422;48.286;8.484;2023-04-03T05:25:37;94594.03;;;-1.23;100.00
39739;BME280;25422;48.286;8.484;2023-04-03T05:28:03;94595.41;;;-1.31;100.00
39739;BME280;25422;48.286;8.484;2023-04-03T05:30:29;94599.44;;;-1.27;100.00
39739;BME280;25422;48.286;8.484;2023-04-03T05:32:55;94597.78;;;-1.28;100.00
39739;BME280;25422;48.286;8.484;2023-04-03T05:35:31;94595.88;;;-1.25;100.00
39739;BME280;25422;48.286;8.484;2023-04-03T05:38:00;94596.38;;;-1.18;100.00
39739;BME280;25422;48.286;8.484;2023-04-03T05:40:26;94599.94;;;-1.21;100.00
39739;BME280;25422;48.286;8.484;2023-04-03T05:42:54;94601.56;;;-1.20;100.00
39739;BME280;25422;48.286;8.484;2023-04-03T05:45:21;94603.88;;;-1.15;100.00
39739;BME280;25422;48.286;8.484;2023-04-03T05:47:47;94605.53;;;-1.14;100.00
39739;BME280;25422;48.286;8.484;2023-04-03T05:50:13;94605.44;;;-1.12;100.00
39739;BME280;25422;48.286;8.484;2023-04-03T05:52:43;94609.41;;;-1.07;100.00
39739;BME280;25422;48.286;8.484;2023-04-03T05:55:09;94601.78;;;-1.08;100.00
39739;BME280;25422;48.286;8.484;2023-04-03T05:57:35;94606.19;;;-1.10;100.00
39739;BME280;25422;48.286;8.484;2023-04-03T06:00:06;94612.88;;;-1.08;100.00
39739;BME280;25422;48.286;8.484;2023-04-03T06:02:39;94609.50;;;-1.08;100.00
39739;BME280;25422;48.286;8.484;2023-04-03T06:05:09;94614.16;;;-1.00;100.00
39739;BME280;25422;48.286;8.484;2023-04-03T06:07:34;94611.06;;;-1.06;100.00
39739;BME280;25422;48.286;8.484;2023-04-03T06:10:01;94612.88;;;-1.08;100.00
39739;BME280;25422;48.286;8.484;2023-04-03T06:12:26;94608.41;;;-1.04;100.00
39739;BME280;25422;48.286;8.484;2023-04-03T06:14:54;94613.25;;;-0.99;100.00
39739;BME280;25422;48.286;8.484;2023-04-03T06:17:19;94609.69;;;-0.97;100.00
39739;BME280;25422;48.286;8.484;2023-04-03T06:19:45;94612.91;;;-0.79;100.00
39739;BME280;25422;48.286;8.484;2023-04-03T06:22:11;94618.34;;;-0.83;100.00
39739;BME280;25422;48.286;8.484;2023-04-03T06:24:37;94620.34;;;-0.89;100.00
39739;BME280;25422;48.286;8.484;2023-04-03T06:27:03;94617.97;;;-0.92;100.00
39739;BME280;25422;48.286;8.484;2023-04-03T06:29:29;94620.63;;;-0.79;100.00
39739;BME280;25422;48.286;8.484;2023-04-03T06:31:54;94621.38;;;-0.77;100.00
39739;BME280;25422;48.286;8.484;2023-04-03T06:34:20;94615.69;;;-0.68;100.00
39739;BME280;25422;48.286;8.484;2023-04-03T06:36:46;94622.66;;;-0.70;100.00
39739;BME280;25422;48.286;8.484;2023-04-03T06:39:17;94624.41;;;-0.70;100.00
39739;BME280;25422;48.286;8.484;2023-04-03T06:41:43;94629.66;;;-0.72;100.00
39739;BME280;25422;48.286;8.484;2023-04-03T06:44:09;94622.56;;;-0.68;100.00
39739;BME280;25422;48.286;8.484;2023-04-03T06:46:37;94632.94;;;-0.70;100.00
39739;BME280;25422;48.286;8.484;2023-04-03T06:49:03;94622.47;;;-0.81;100.00
39739;BME280;25422;48.286;8.484;2023-04-03T06:51:29;94634.31;;;-0.78;100.00
39739;BME280;25422;48.286;8.484;2023-04-03T06:53:57;94634.66;;;-0.85;100.00
39739;BME280;25422;48.286;8.484;2023-04-03T06:56:23;94631.91;;;-0.81;100.00
39739;BME280;25422;48.286;8.484;2023-04-03T06:58:50;94642.75;;;-0.76;100.00
39739;BME280;25422;48.286;8.484;2023-04-03T07:01:17;94636.22;;;-0.82;100.00
39739;BME280;25422;48.286;8.484;2023-04-03T07:03:44;94638.06;;;-0.70;100.00
39739;BME280;25422;48.286;8.484;2023-04-03T07:06:14;94640.84;;;-0.73;100.00
39739;BME280;25422;48.286;8.484;2023-04-03T07:08:39;94639.47;;;-0.78;100.00
39739;BME280;25422;48.286;8.484;2023-04-03T07:11:06;94635.41;;;-0.68;100.00
39739;BME280;25422;48.286;8.484;2023-04-03T07:13:31;94640.41;;;-0.65;100.00
39739;BME280;25422;48.286;8.484;2023-04-03T07:15:58;94644.53;;;-0.62;100.00
39739;BME280;25422;48.286;8.484;2023-04-03T07:18:23;94649.09;;;-0.53;100.00
39739;BME280;25422;48.286;8.484;2023-04-03T07:20:49;94648.75;;;-0.47;100.00
39739;BME280;25422;48.286;8.484;2023-04-03T07:23:15;94654.91;;;-0.49;100.00
39739;BME280;25422;48.286;8.484;2023-04-03T07:25:43;94646.47;;;-0.37;100.00
39739;BME280;25422;48.286;8.484;2023-04-03T07:28:09;94652.16;;;-0.32;100.00
39739;BME280;25422;48.286;8.484;2023-04-03T07:30:35;94658.50;;;-0.38;100.00
39739;BME280;25422;48.286;8.484;2023-04-03T07:33:00;94648.75;;;-0.18;100.00
39739;BME280;25422;48.286;8.484;2023-04-03T07:35:26;94658.09;;;-0.31;100.00
39739;BME280;25422;48.286;8.484;2023-04-03T07:37:52;94659.94;;;-0.19;100.00
39739;BME280;25422;48.286;8.484;2023-04-03T07:40:18;94659.41;;;-0.24;100.00
39739;BME280;25422;48.286;8.484;2023-04-03T07:42:44;94659.03;;;-0.18;100.00
39739;BME280;25422;48.286;8.484;2023-04-03T07:45:10;94654.09;;;-0.21;100.00
39739;BME280;25422;48.286;8.484;2023-04-03T07:47:35;94655.53;;;-0.17;100.00
39739;BME280;25422;48.286;8.484;2023-04-03T07:50:01;94655.75;;;-0.20;100.00
39739;BME280;25422;48.286;8.484;2023-04-03T07:52:26;94658.47;;;-0.09;100.00
39739;BME280;25422;48.286;8.484;2023-04-03T07:54:52;94656.25;;;-0.01;100.00
39739;BME280;25422;48.286;8.484;2023-04-03T07:57:17;94661.41;;;-0.01;100.00
39739;BME280;25422;48.286;8.484;2023-04-03T07:59:43;94656.53;;;0.09;100.00
39739;BME280;25422;48.286;8.484;2023-04-03T08:02:09;94654.25;;;0.05;100.00
39739;BME280;25422;48.286;8.484;2023-04-03T08:04:35;94654.97;;;0.07;100.00
39739;BME280;25422;48.286;8.484;2023-04-03T08:07:00;94664.44;;;0.06;100.00
39739;BME280;25422;48.286;8.484;2023-04-03T08:09:26;94667.72;;;0.23;100.00
39739;BME280;25422;48.286;8.484;2023-04-03T08:11:51;94665.59;;;0.29;100.00
39739;BME280;25422;48.286;8.484;2023-04-03T08:14:19;94652.69;;;0.44;100.00
39739;BME280;25422;48.286;8.484;2023-04-03T08:16:47;94664.44;;;0.75;100.00
39739;BME280;25422;48.286;8.484;2023-04-03T08:19:14;94666.13;;;1.29;100.00
39739;BME280;25422;48.286;8.484;2023-04-03T08:21:41;94659.97;;;1.58;100.00
39739;BME280;25422;48.286;8.484;2023-04-03T08:24:08;94654.91;;;1.69;100.00
39739;BME280;25422;48.286;8.484;2023-04-03T08:26:34;94651.88;;;2.01;100.00
39739;BME280;25422;48.286;8.484;2023-04-03T08:28:59;94646.34;;;2.31;100.00
39739;BME280;25422;48.286;8.484;2023-04-03T08:31:25;94643.91;;;2.78;100.00
39739;BME280;25422;48.286;8.484;2023-04-03T08:33:50;94648.28;;;2.89;100.00
39739;BME280;25422;48.286;8.484;2023-04-03T08:36:19;94647.91;;;3.18;100.00
39739;BME280;25422;48.286;8.484;2023-04-03T08:38:45;94653.78;;;2.84;100.00
39739;BME280;25422;48.286;8.484;2023-04-03T08:41:15;94661.28;;;3.12;100.00
39739;BME280;25422;48.286;8.484;2023-04-03T08:43:58;94661.94;;;3.02;100.00
39739;BME280;25422;48.286;8.484;2023-04-03T08:46:37;94655.81;;;2.44;100.00
39739;BME280;25422;48.286;8.484;2023-04-03T08:49:13;94663.19;;;2.24;100.00
39739;BME280;25422;48.286;8.484;2023-04-03T08:51:46;94677.69;;;1.88;100.00
39739;BME280;25422;48.286;8.484;2023-04-03T08:54:30;94677.00;;;1.86;100.00
39739;BME280;25422;48.286;8.484;2023-04-03T08:57:00;94675.63;;;1.93;100.00
39739;BME280;25422;48.286;8.484;2023-04-03T08:59:34;94671.38;;;1.92;100.00
39739;BME280;25422;48.286;8.484;2023-04-03T09:02:02;94674.09;;;1.78;100.00
39739;BME280;25422;48.286;8.484;2023-04-03T09:04:32;94674.47;;;1.84;100.00
39739;BME280;25422;48.286;8.484;2023-04-03T09:07:03;94672.03;;;2.33;100.00
39739;BME280;25422;48.286;8.484;2023-04-03T09:09:39;94668.94;;;2.41;100.00
39739;BME280;25422;48.286;8.484;2023-04-03T09:15:02;94663.25;;;2.35;100.00
39739;BME280;25422;48.286;8.484;2023-04-03T09:23:28;94665.50;;;3.01;100.00
39739;BME280;25422;48.286;8.484;2023-04-03T09:26:14;94669.16;;;2.62;100.00
39739;BME280;25422;48.286;8.484;2023-04-03T09:28:42;94659.78;;;2.61;100.00
39739;BME280;25422;48.286;8.484;2023-04-03T09:33:43;94675.00;;;2.77;100.00
39739;BME280;25422;48.286;8.484;2023-04-03T09:36:10;94668.13;;;2.64;100.00
39739;BME280;25422;48.286;8.484;2023-04-03T09:38:36;94670.53;;;2.55;100.00
39739;BME280;25422;48.286;8.484;2023-04-03T09:41:04;94666.00;;;2.58;100.00
39739;BME280;25422;48.286;8.484;2023-04-03T09:43:31;94668.09;;;2.77;100.00
39739;BME280;25422;48.286;8.484;2023-04-03T09:46:39;94659.22;;;3.28;100.00
39739;BME280;25422;48.286;8.484;2023-04-03T09:49:05;94668.81;;;3.50;100.00
39739;BME280;25422;48.286;8.484;2023-04-03T09:51:31;94668.88;;;3.26;100.00
39739;BME280;25422;48.286;8.484;2023-04-03T09:53:58;94667.41;;;3.58;100.00
39739;BME280;25422;48.286;8.484;2023-04-03T09:56:28;94667.53;;;3.67;100.00
39739;BME280;25422;48.286;8.484;2023-04-03T10:01:30;94660.72;;;2.84;100.00
39739;BME280;25422;48.286;8.484;2023-04-03T10:04:15;94669.34;;;2.96;100.00
39739;BME280;25422;48.286;8.484;2023-04-03T10:06:46;94661.41;;;2.86;100.00
39739;BME280;25422;48.286;8.484;2023-04-03T10:14:37;94658.97;;;3.20;100.00
39739;BME280;25422;48.286;8.484;2023-04-03T10:17:22;94665.28;;;3.16;100.00
39739;BME280;25422;48.286;8.484;2023-04-03T10:27:59;94661.63;;;3.54;100.00
39739;BME280;25422;48.286;8.484;2023-04-03T10:33:32;94663.41;;;3.65;97.26
39739;BME280;25422;48.286;8.484;2023-04-03T10:36:04;94655.03;;;3.50;99.54
39739;BME280;25422;48.286;8.484;2023-04-03T10:41:41;94665.88;;;3.44;100.00
39739;BME280;25422;48.286;8.484;2023-04-03T10:44:38;94661.63;;;3.43;100.00
39739;BME280;25422;48.286;8.484;2023-04-03T10:47:16;94658.94;;;3.09;100.00
39739;BME280;25422;48.286;8.484;2023-04-03T10:49:54;94663.81;;;2.65;100.00
39739;BME280;25422;48.286;8.484;2023-04-03T10:52:43;94665.63;;;2.76;100.00
39739;BME280;25422;48.286;8.484;2023-04-03T10:57:39;94660.00;;;2.82;100.00
39739;BME280;25422;48.286;8.484;2023-04-03T11:00:18;94659.50;;;2.52;100.00
39739;BME280;25422;48.286;8.484;2023-04-03T11:02:54;94659.63;;;2.51;100.00
39739;BME280;25422;48.286;8.484;2023-04-03T11:10:47;94657.34;;;2.95;100.00
39739;BME280;25422;48.286;8.484;2023-04-03T11:13:19;94658.97;;;3.20;100.00
39739;BME280;25422;48.286;8.484;2023-04-03T11:15:48;94663.53;;;2.81;100.00
39739;BME280;25422;48.286;8.484;2023-04-03T11:18:21;94657.09;;;2.86;100.00
39739;BME280;25422;48.286;8.484;2023-04-03T11:20:58;94655.44;;;2.85;100.00
39739;BME280;25422;48.286;8.484;2023-04-03T11:23:29;94643.31;;;3.10;100.00
39739;BME280;25422;48.286;8.484;2023-04-03T11:26:07;94642.81;;;3.05;96.30
39739;BME280;25422;48.286;8.484;2023-04-03T11:28:33;94641.22;;;3.27;100.00
39739;BME280;25422;48.286;8.484;2023-04-03T11:31:13;94639.38;;;2.93;95.88
39739;BME280;25422;48.286;8.484;2023-04-03T11:34:05;94639.41;;;3.04;96.92
39739;BME280;25422;48.286;8.484;2023-04-03T11:36:54;94638.31;;;3.31;95.63
39739;BME280;25422;48.286;8.484;2023-04-03T11:39:31;94628.84;;;3.54;90.49
39739;BME280;25422;48.286;8.484;2023-04-03T11:42:35;94641.91;;;3.53;89.55
39739;BME280;25422;48.286;8.484;2023-04-03T11:47:57;94633.19;;;3.54;94.83
39739;BME280;25422;48.286;8.484;2023-04-03T11:50:40;94637.94;;;3.94;93.67
39739;BME280;25422;48.286;8.484;2023-04-03T12:06:41;94625.47;;;3.18;97.36
39739;BME280;25422;48.286;8.484;2023-04-03T12:09:04;94630.31;;;3.23;96.46
39739;BME280;25422;48.286;8.484;2023-04-03T12:11:47;94626.34;;;3.42;94.89
39739;BME280;25422;48.286;8.484;2023-04-03T12:14:15;94630.91;;;3.27;94.71
39739;BME280;25422;48.286;8.484;2023-04-03T12:16:44;94619.75;;;3.37;91.91
39739;BME280;25422;48.286;8.484;2023-04-03T12:26:50;94628.53;;;3.24;92.70
39739;BME280;25422;48.286;8.484;2023-04-03T12:46:46;94626.63;;;3.14;85.70
39739;BME280;25422;48.286;8.484;2023-04-03T12:49:37;94623.38;;;3.24;81.75
39739;BME280;25422;48.286;8.484;2023-04-03T12:52:32;94620.25;;;3.54;87.12
39739;BME280;25422;48.286;8.484;2023-04-03T12:55:01;94620.25;;;3.54;84.86
39739;BME280;25422;48.286;8.484;2023-04-03T12:57:30;94614.16;;;3.66;84.13
39739;BME280;25422;48.286;8.484;2023-04-03T12:59:56;94613.91;;;3.58;83.70
39739;BME280;25422;48.286;8.484;2023-04-03T13:02:28;94616.38;;;3.82;85.14
39739;BME280;25422;48.286;8.484;2023-04-03T13:04:57;94617.81;;;3.64;82.02
39739;BME280;25422;48.286;8.484;2023-04-03T13:07:32;94616.84;;;3.53;79.57
39739;BME280;25422;48.286;8.484;2023-04-03T13:12:30;94617.19;;;3.60;78.53
39739;BME280;25422;48.286;8.484;2023-04-03T13:15:00;94611.09;;;3.61;76.55
39739;BME280;25422;48.286;8.484;2023-04-03T13:17:27;94599.56;;;3.65;78.19
39739;BME280;25422;48.286;8.484;2023-04-03T13:19:53;94608.50;;;3.61;76.63
39739;BME280;25422;48.286;8.484;2023-04-03T13:22:44;94607.31;;;3.43;82.04
39739;BME280;25422;48.286;8.484;2023-04-03T13:25:15;94610.31;;;3.25;78.92
39739;BME280;25422;48.286;8.484;2023-04-03T13:27:42;94612.72;;;3.40;84.14
39739;BME280;25422;48.286;8.484;2023-04-03T13:30:28;94616.03;;;3.64;80.61
39739;BME280;25422;48.286;8.484;2023-04-03T13:32:59;94613.44;;;3.53;80.38
39739;BME280;25422;48.286;8.484;2023-04-03T13:40:50;94615.06;;;3.31;83.29
39739;BME280;25422;48.286;8.484;2023-04-03T13:43:25;94613.19;;;3.67;82.79
39739;BME280;25422;48.286;8.484;2023-04-03T13:46:01;94593.06;;;3.48;77.69
39739;BME280;25422;48.286;8.484;2023-04-03T13:48:36;94608.09;;;3.32;80.58
39739;BME280;25422;48.286;8.484;2023-04-03T13:51:06;94621.69;;;3.58;85.87
39739;BME280;25422;48.286;8.484;2023-04-03T13:53:34;94610.31;;;3.25;77.60
39739;BME280;25422;48.286;8.484;2023-04-03T13:56:09;94606.84;;;3.71;79.77
39739;BME280;25422;48.286;8.484;2023-04-03T13:59:03;94614.84;;;3.80;83.51
39739;BME280;25422;48.286;8.484;2023-04-03T14:01:38;94609.69;;;3.91;85.52
39739;BME280;25422;48.286;8.484;2023-04-03T14:04:18;94604.72;;;4.11;86.44
39739;BME280;25422;48.286;8.484;2023-04-03T14:06:44;94610.16;;;3.96;83.30
39739;BME280;25422;48.286;8.484;2023-04-03T14:09:10;94606.97;;;3.47;81.90
39739;BME280;25422;48.286;8.484;2023-04-03T14:11:36;94602.84;;;3.45;86.45
39739;BME280;25422;48.286;8.484;2023-04-03T14:14:09;94599.84;;;3.27;82.86
39739;BME280;25422;48.286;8.484;2023-04-03T14:16:40;94603.50;;;3.24;87.62
39739;BME280;25422;48.286;8.484;2023-04-03T14:19:14;94594.97;;;2.99;85.87
39739;BME280;25422;48.286;8.484;2023-04-03T14:21:41;94599.63;;;2.83;85.25
39739;BME280;25422;48.286;8.484;2023-04-03T14:24:07;94599.41;;;2.86;85.76
39739;BME280;25422;48.286;8.484;2023-04-03T14:26:32;94592.81;;;2.82;86.43
39739;BME280;25422;48.286;8.484;2023-04-03T14:28:58;94600.09;;;2.52;86.19
39739;BME280;25422;48.286;8.484;2023-04-03T14:31:23;94589.69;;;2.41;87.38
39739;BME280;25422;48.286;8.484;2023-04-03T14:33:50;94603.19;;;2.33;88.80
39739;BME280;25422;48.286;8.484;2023-04-03T14:36:23;94590.09;;;2.48;91.00
39739;BME280;25422;48.286;8.484;2023-04-03T14:38:50;94591.00;;;2.71;96.29
39739;BME280;25422;48.286;8.484;2023-04-03T14:41:19;94586.56;;;2.73;95.65